createdAt,value
2019-01-24T00:00:16.633Z,-4.60
2019-01-24T00:02:18.297Z,-4.50
2019-01-24T00:04:20.227Z,-4.50
2019-01-24T00:06:21.905Z,-4.40
2019-01-24T00:08:23.850Z,-4.60
2019-01-24T00:10:25.487Z,-4.60
2019-01-24T00:12:27.140Z,-4.50
2019-01-24T00:14:28.812Z,-4.60
2019-01-24T00:16:30.560Z,-4.50
2019-01-24T00:18:32.257Z,-4.60
2019-01-24T00:20:34.269Z,-4.50
2019-01-24T00:22:35.925Z,-4.70
2019-01-24T00:24:37.580Z,-4.70
2019-01-24T00:26:39.249Z,-4.70
2019-01-24T00:28:40.897Z,-4.80
2019-01-24T00:30:42.536Z,-4.80
2019-01-24T00:32:44.482Z,-4.80
2019-01-24T00:34:46.132Z,-5.00
2019-01-24T00:36:47.793Z,-4.90
2019-01-24T00:38:49.464Z,-4.90
2019-01-24T00:40:51.099Z,-4.90
2019-01-24T00:42:52.765Z,-5.10
2019-01-24T00:44:54.416Z,-4.90
2019-01-24T00:46:56.059Z,-5.00
2019-01-24T00:48:57.781Z,-5.10
2019-01-24T00:50:59.428Z,-5.10
2019-01-24T00:53:01.101Z,-5.10
2019-01-24T00:55:03.901Z,-5.00
2019-01-24T00:57:05.547Z,-5.20
2019-01-24T00:59:07.204Z,-4.90
2019-01-24T01:01:08.857Z,-4.90
2019-01-24T01:03:10.517Z,-5.00
2019-01-24T01:05:12.173Z,-5.00
2019-01-24T01:07:13.837Z,-5.00
2019-01-24T01:09:15.497Z,-5.20
2019-01-24T01:11:17.136Z,-5.00
2019-01-24T01:13:18.831Z,-5.00
2019-01-24T01:15:20.493Z,-5.10
2019-01-24T01:17:22.145Z,-5.00
2019-01-24T01:19:23.805Z,-5.10
2019-01-24T01:21:25.463Z,-5.20
2019-01-24T01:23:27.125Z,-5.00
2019-01-24T01:25:28.768Z,-4.90
2019-01-24T01:27:30.458Z,-4.80
2019-01-24T01:29:32.329Z,-4.80
2019-01-24T01:31:34.289Z,-4.80
2019-01-24T01:33:35.943Z,-4.80
2019-01-24T01:35:37.933Z,-4.80
2019-01-24T01:37:39.889Z,-4.80
2019-01-24T01:39:41.839Z,-4.80
2019-01-24T01:41:43.492Z,-4.70
2019-01-24T01:43:45.152Z,-4.80
2019-01-24T01:45:46.805Z,-4.70
2019-01-24T01:47:48.868Z,-4.70
2019-01-24T01:49:50.516Z,-4.80
2019-01-24T01:51:52.169Z,-4.80
2019-01-24T01:53:53.833Z,-4.90
2019-01-24T01:55:55.485Z,-4.90
2019-01-24T01:57:57.172Z,-4.90
2019-01-24T01:59:58.901Z,-5.10
2019-01-24T02:02:00.551Z,-5.10
2019-01-24T02:04:02.212Z,-5.20
2019-01-24T02:06:03.874Z,-5.20
2019-01-24T02:08:05.553Z,-5.20
2019-01-24T02:10:09.302Z,-5.30
2019-01-24T02:12:11.240Z,-5.10
2019-01-24T02:14:12.904Z,-5.10
2019-01-24T02:16:14.556Z,-5.10
2019-01-24T02:18:16.241Z,-5.20
2019-01-24T02:20:19.839Z,-5.20
2019-01-24T02:22:21.494Z,-5.10
2019-01-24T02:24:23.148Z,-5.10
2019-01-24T02:26:25.085Z,-5.00
2019-01-24T02:28:26.793Z,-4.90
2019-01-24T02:30:28.453Z,-5.10
2019-01-24T02:32:30.417Z,-5.10
2019-01-24T02:34:32.077Z,-5.00
2019-01-24T02:36:33.721Z,-5.00
2019-01-24T02:38:35.371Z,-4.90
2019-01-24T02:40:37.036Z,-4.90
2019-01-24T02:42:38.690Z,-4.80
2019-01-24T02:44:40.353Z,-4.80
2019-01-24T02:46:42.008Z,-5.10
2019-01-24T02:48:43.667Z,-5.00
2019-01-24T02:50:45.326Z,-5.00
2019-01-24T02:52:46.971Z,-4.90
2019-01-24T02:54:48.893Z,-4.90
2019-01-24T02:56:50.545Z,-4.90
2019-01-24T02:58:52.208Z,-4.90
2019-01-24T03:00:53.857Z,-4.90
2019-01-24T03:02:55.760Z,-4.90
2019-01-24T03:04:57.414Z,-4.90
2019-01-24T03:06:59.122Z,-4.90
2019-01-24T03:09:00.789Z,-5.00
2019-01-24T03:11:02.446Z,-5.00
2019-01-24T03:13:04.360Z,-5.00
2019-01-24T03:15:07.176Z,-4.90
2019-01-24T03:17:09.108Z,-4.90
2019-01-24T03:19:10.757Z,-4.90
2019-01-24T03:21:12.417Z,-4.90
2019-01-24T03:23:14.059Z,-4.90
2019-01-24T03:25:15.844Z,-4.90
2019-01-24T03:27:17.489Z,-4.80
2019-01-24T03:29:19.145Z,-4.80
2019-01-24T03:31:20.797Z,-4.80
2019-01-24T03:33:22.726Z,-4.80
2019-01-24T03:35:25.744Z,-4.80
2019-01-24T03:37:27.670Z,-4.80
2019-01-24T03:39:29.324Z,-4.70
2019-01-24T03:41:31.277Z,-4.70
2019-01-24T03:43:32.933Z,-4.60
2019-01-24T03:45:34.588Z,-4.70
2019-01-24T03:47:36.227Z,-4.70
2019-01-24T03:49:38.183Z,-4.60
2019-01-24T03:51:39.848Z,-4.70
2019-01-24T03:53:41.496Z,-4.70
2019-01-24T03:55:43.166Z,-4.70
2019-01-24T03:57:44.809Z,-4.70
2019-01-24T03:59:47.065Z,-4.60
2019-01-24T04:01:48.717Z,-4.60
2019-01-24T04:03:50.361Z,-4.70
2019-01-24T04:05:52.026Z,-4.70
2019-01-24T04:07:53.682Z,-4.60
2019-01-24T04:09:55.671Z,-4.60
2019-01-24T04:11:57.593Z,-4.60
2019-01-24T04:13:59.351Z,-4.70
2019-01-24T04:16:01.297Z,-4.70
2019-01-24T04:18:03.227Z,-4.60
2019-01-24T04:20:05.328Z,-4.60
2019-01-24T04:22:06.996Z,-4.60
2019-01-24T04:24:08.657Z,-4.50
2019-01-24T04:26:10.330Z,-4.50
2019-01-24T04:28:11.963Z,-4.60
2019-01-24T04:30:15.655Z,-4.50
2019-01-24T04:32:17.299Z,-4.60
2019-01-24T04:34:18.950Z,-4.60
2019-01-24T04:36:20.619Z,-4.50
2019-01-24T04:38:22.251Z,-4.70
2019-01-24T04:40:23.903Z,-4.60
2019-01-24T04:42:25.576Z,-4.50
2019-01-24T04:44:27.230Z,-4.50
2019-01-24T04:46:28.889Z,-4.50
2019-01-24T04:48:30.547Z,-4.50
2019-01-24T04:50:32.221Z,-4.50
2019-01-24T04:52:34.200Z,-4.60
2019-01-24T04:54:35.841Z,-4.50
2019-01-24T04:56:37.505Z,-4.50
2019-01-24T04:58:39.207Z,-4.50
2019-01-24T05:00:40.913Z,-4.50
2019-01-24T05:02:42.569Z,-4.50
2019-01-24T05:04:44.208Z,-4.50
2019-01-24T05:06:45.863Z,-4.50
2019-01-24T05:08:47.513Z,-4.50
2019-01-24T05:10:49.178Z,-4.40
2019-01-24T05:12:51.120Z,-4.40
2019-01-24T05:14:52.776Z,-4.50
2019-01-24T05:16:54.729Z,-4.50
2019-01-24T05:18:56.388Z,-4.50
2019-01-24T05:20:58.057Z,-4.40
2019-01-24T05:22:59.695Z,-4.40
2019-01-24T05:25:01.366Z,-4.40
2019-01-24T05:27:03.134Z,-4.40
2019-01-24T05:29:04.768Z,-4.40
2019-01-24T05:31:06.419Z,-4.40
2019-01-24T05:33:08.077Z,-4.30
2019-01-24T05:35:09.733Z,-4.30
2019-01-24T05:37:11.394Z,-4.30
2019-01-24T05:39:13.049Z,-4.30
2019-01-24T05:41:14.704Z,-4.30
2019-01-24T05:43:16.361Z,-4.30
2019-01-24T05:45:18.030Z,-4.30
2019-01-24T05:47:19.693Z,-4.30
2019-01-24T05:49:21.338Z,-4.20
2019-01-24T05:51:23.004Z,-4.20
2019-01-24T05:53:24.660Z,-4.20
2019-01-24T05:55:26.329Z,-4.30
2019-01-24T05:57:27.976Z,-4.30
2019-01-24T05:59:29.634Z,-4.30
2019-01-24T06:01:31.993Z,-4.30
2019-01-24T06:03:33.645Z,-4.20
2019-01-24T06:05:41.582Z,-4.20
2019-01-24T06:07:38.873Z,-4.20
2019-01-24T06:09:40.520Z,-4.20
2019-01-24T06:11:42.181Z,-4.20
2019-01-24T06:13:43.820Z,-4.20
2019-01-24T06:15:45.798Z,-4.20
2019-01-24T06:17:47.475Z,-4.20
2019-01-24T06:19:49.129Z,-4.20
2019-01-24T06:21:51.066Z,-4.20
2019-01-24T06:23:53.018Z,-4.20
2019-01-24T06:25:54.676Z,-4.20
2019-01-24T06:27:56.333Z,-4.20
2019-01-24T06:29:58.089Z,-4.10
2019-01-24T06:31:59.759Z,-4.10
2019-01-24T06:34:01.401Z,-4.20
2019-01-24T06:36:03.065Z,-4.10
2019-01-24T06:38:04.985Z,-4.10
2019-01-24T06:40:07.374Z,-4.10
2019-01-24T06:42:09.028Z,-4.10
2019-01-24T06:44:10.680Z,-4.20
2019-01-24T06:46:12.337Z,-4.20
2019-01-24T06:48:13.979Z,-4.20
2019-01-24T06:50:16.031Z,-4.10
2019-01-24T06:52:17.725Z,-4.10
2019-01-24T06:54:19.632Z,-4.10
2019-01-24T06:56:21.296Z,-4.10
2019-01-24T06:58:22.951Z,-4.10
2019-01-24T07:00:24.597Z,-4.10
2019-01-24T07:02:26.309Z,-4.10
2019-01-24T07:04:28.300Z,-4.10
2019-01-24T07:06:29.962Z,-4.10
2019-01-24T07:08:31.903Z,-4.20
2019-01-24T07:10:33.849Z,-4.20
2019-01-24T07:12:35.918Z,-4.20
2019-01-24T07:14:38.165Z,-4.20
2019-01-24T07:16:39.937Z,-4.20
2019-01-24T07:18:41.575Z,-4.20
2019-01-24T07:20:43.457Z,-4.40
2019-01-24T07:22:45.615Z,-4.60
2019-01-24T07:24:47.256Z,-4.60
2019-01-24T07:26:49.076Z,-4.70
2019-01-24T07:28:51.068Z,-4.70
2019-01-24T07:30:52.824Z,-4.90
2019-01-24T07:32:54.483Z,-4.90
2019-01-24T07:34:56.301Z,-4.90
2019-01-24T07:36:58.031Z,-5.00
2019-01-24T07:39:00.028Z,-4.90
2019-01-24T07:41:01.760Z,-4.90
2019-01-24T07:43:05.346Z,-5.00
2019-01-24T07:45:11.017Z,-4.90
2019-01-24T07:47:12.732Z,-4.90
2019-01-24T07:49:14.670Z,-4.90
2019-01-24T07:51:16.537Z,-5.00
2019-01-24T07:53:18.591Z,-4.90
2019-01-24T07:55:21.582Z,-4.80
2019-01-24T07:57:23.491Z,-4.80
2019-01-24T07:59:25.154Z,-4.80
2019-01-24T08:01:26.805Z,-4.80
2019-01-24T08:03:28.474Z,-4.80
2019-01-24T08:05:30.339Z,-4.80
2019-01-24T08:07:32.100Z,-4.70
2019-01-24T08:09:33.900Z,-4.70
2019-01-24T08:11:36.813Z,-4.70
2019-01-24T08:13:39.676Z,-4.70
2019-01-24T08:15:41.806Z,-4.60
2019-01-24T08:17:43.837Z,-4.60
2019-01-24T08:19:45.626Z,-4.60
2019-01-24T08:21:47.405Z,-4.50
2019-01-24T08:23:49.697Z,-4.50
2019-01-24T08:25:51.599Z,-4.50
2019-01-24T08:27:53.372Z,-4.40
2019-01-24T08:29:57.063Z,-4.50
2019-01-24T08:31:58.772Z,-4.50
2019-01-24T08:34:00.483Z,-4.50
2019-01-24T08:36:02.327Z,-4.50
2019-01-24T08:38:04.090Z,-4.50
2019-01-24T08:40:07.051Z,-4.50
2019-01-24T08:42:08.697Z,-4.40
2019-01-24T08:44:10.615Z,-4.30
2019-01-24T08:46:12.263Z,-4.20
2019-01-24T08:48:16.986Z,-4.20
2019-01-24T08:50:20.080Z,-4.20
2019-01-24T08:52:21.953Z,-4.20
2019-01-24T08:54:23.805Z,-4.20
2019-01-24T08:56:25.619Z,-4.20
2019-01-24T08:58:27.415Z,-4.10
2019-01-24T09:00:29.208Z,-4.20
2019-01-24T09:02:31.112Z,-4.30
2019-01-24T09:04:35.643Z,-4.20
2019-01-24T09:06:37.388Z,-4.20
2019-01-24T09:08:39.075Z,-4.10
2019-01-24T09:10:40.912Z,-4.00
2019-01-24T09:12:43.070Z,-4.10
2019-01-24T09:14:48.188Z,-3.90
2019-01-24T09:16:49.828Z,-3.90
2019-01-24T09:18:51.523Z,-3.90
2019-01-24T09:20:53.160Z,-3.80
2019-01-24T09:22:55.604Z,-3.80
2019-01-24T09:24:57.909Z,-3.70
2019-01-24T09:26:59.779Z,-3.60
2019-01-24T09:29:04.724Z,-3.50
2019-01-24T09:31:06.365Z,-3.40
2019-01-24T09:33:08.104Z,-3.40
2019-01-24T09:35:10.610Z,-3.30
2019-01-24T09:37:12.256Z,-3.10
2019-01-24T09:39:13.911Z,-2.40
2019-01-24T09:41:15.569Z,-2.00
2019-01-24T09:43:17.204Z,-1.40
2019-01-24T09:45:20.772Z,-0.90
2019-01-24T09:47:22.416Z,-0.70
2019-01-24T09:49:24.071Z,-0.50
2019-01-24T09:51:25.729Z,0.00
2019-01-24T09:53:27.376Z,-0.10
2019-01-24T09:55:29.037Z,-0.20
2019-01-24T09:57:30.690Z,-0.10
2019-01-24T09:59:32.339Z,0.10
2019-01-24T10:01:34.268Z,0.50
2019-01-24T10:03:35.920Z,0.70
2019-01-24T10:05:37.589Z,0.50
2019-01-24T10:07:39.257Z,0.10
2019-01-24T10:09:40.916Z,0.30
2019-01-24T10:11:42.570Z,0.10
2019-01-24T10:13:44.212Z,-0.10
2019-01-24T10:15:45.885Z,-0.10
2019-01-24T10:17:47.535Z,-0.20
2019-01-24T10:19:49.497Z,-0.40
2019-01-24T10:21:51.140Z,-0.40
2019-01-24T10:23:53.149Z,-0.60
2019-01-24T10:25:54.801Z,-0.70
2019-01-24T10:27:56.751Z,-0.70
2019-01-24T10:29:58.816Z,-0.90
2019-01-24T10:32:00.477Z,-0.50
2019-01-24T10:34:02.148Z,-0.40
2019-01-24T10:36:03.817Z,-0.20
2019-01-24T10:38:05.469Z,-0.10
2019-01-24T10:40:10.382Z,-0.20
2019-01-24T10:42:12.037Z,0.10
2019-01-24T10:44:13.746Z,0.20
2019-01-24T10:46:15.393Z,0.00
2019-01-24T10:48:17.048Z,-0.50
2019-01-24T10:50:19.973Z,-0.30
2019-01-24T10:52:21.629Z,-0.30
2019-01-24T10:54:23.285Z,-0.30
2019-01-24T10:56:24.969Z,0.00
2019-01-24T10:58:26.619Z,0.00
2019-01-24T11:00:31.777Z,0.00
2019-01-24T11:02:33.435Z,-0.30
2019-01-24T11:04:35.289Z,-0.40
2019-01-24T11:06:36.968Z,-0.60
2019-01-24T11:08:38.626Z,-0.90
2019-01-24T11:10:40.286Z,-1.10
2019-01-24T11:12:41.928Z,-1.00
2019-01-24T11:14:43.609Z,-1.20
2019-01-24T11:16:45.348Z,-1.20
2019-01-24T11:18:47.041Z,-1.20
2019-01-24T11:20:48.869Z,-1.50
2019-01-24T11:22:50.632Z,-1.50
2019-01-24T11:24:52.704Z,-1.50
2019-01-24T11:26:54.684Z,-1.50
2019-01-24T11:28:56.508Z,-1.50
2019-01-24T11:30:58.613Z,-1.60
2019-01-24T11:33:00.769Z,-1.50
2019-01-24T11:35:02.740Z,-1.50
2019-01-24T11:37:04.546Z,-1.70
2019-01-24T11:39:06.312Z,-1.90
2019-01-24T11:41:08.181Z,-1.80
2019-01-24T11:43:10.282Z,-1.70
2019-01-24T11:45:12.668Z,-1.80
2019-01-24T11:47:14.528Z,-2.00
2019-01-24T11:49:16.579Z,-1.90
2019-01-24T11:51:18.321Z,-1.90
2019-01-24T11:53:21.005Z,-1.80
2019-01-24T11:55:22.672Z,-1.80
2019-01-24T11:57:24.473Z,-1.80
2019-01-24T11:59:26.549Z,-1.80
2019-01-24T12:01:28.214Z,-1.80
2019-01-24T12:03:30.014Z,-1.80
2019-01-24T12:05:32.121Z,-1.70
2019-01-24T12:07:35.551Z,-1.70
2019-01-24T12:09:37.301Z,-1.80
2019-01-24T12:11:40.035Z,-1.80
2019-01-24T12:13:41.919Z,-1.70
2019-01-24T12:15:46.510Z,-1.70
2019-01-24T12:17:48.394Z,-1.70
2019-01-24T12:19:52.537Z,-1.70
2019-01-24T12:21:54.221Z,-1.70
2019-01-24T12:23:56.076Z,-1.80
2019-01-24T12:25:57.908Z,-1.80
2019-01-24T12:27:59.596Z,-1.70
2019-01-24T12:30:01.266Z,-1.80
2019-01-24T12:32:03.024Z,-1.80
2019-01-24T12:34:05.774Z,-1.80
2019-01-24T12:36:07.757Z,-1.70
2019-01-24T12:38:12.768Z,-1.80
2019-01-24T12:40:14.480Z,-1.90
2019-01-24T12:42:16.293Z,-1.90
2019-01-24T12:44:17.945Z,-1.90
2019-01-24T12:46:19.606Z,-1.80
2019-01-24T12:48:21.763Z,-1.80
2019-01-24T12:50:26.385Z,-1.70
2019-01-24T12:52:28.197Z,-1.70
2019-01-24T12:54:30.052Z,-1.70
2019-01-24T12:56:31.746Z,-1.60
2019-01-24T12:58:33.417Z,-1.60
2019-01-24T13:00:36.809Z,-1.60
2019-01-24T13:02:38.757Z,-1.60
2019-01-24T13:04:40.768Z,-1.60
2019-01-24T13:06:42.450Z,-1.70
2019-01-24T13:08:44.101Z,-1.60
2019-01-24T13:10:45.747Z,-1.70
2019-01-24T13:12:47.462Z,-1.60
2019-01-24T13:14:49.103Z,-1.70
2019-01-24T13:16:50.759Z,-1.60
2019-01-24T13:18:52.395Z,-1.60
2019-01-24T13:20:54.049Z,-1.60
2019-01-24T13:22:55.723Z,-1.60
2019-01-24T13:24:57.374Z,-1.50
2019-01-24T13:26:59.041Z,-1.50
2019-01-24T13:29:00.701Z,-1.40
2019-01-24T13:31:02.371Z,-1.40
2019-01-24T13:33:04.963Z,-1.30
2019-01-24T13:35:06.613Z,-1.40
2019-01-24T13:37:08.269Z,-1.40
2019-01-24T13:39:10.232Z,-1.40
2019-01-24T13:41:11.881Z,-1.40
2019-01-24T13:43:13.801Z,-1.40
2019-01-24T13:45:17.824Z,-1.40
2019-01-24T13:47:19.485Z,-1.40
2019-01-24T13:49:21.141Z,-1.40
2019-01-24T13:51:22.789Z,-1.40
2019-01-24T13:53:24.453Z,-1.30
2019-01-24T13:55:26.105Z,-1.30
2019-01-24T13:57:27.766Z,-1.30
2019-01-24T13:59:29.441Z,-1.30
2019-01-24T14:01:31.432Z,-1.20
2019-01-24T14:04:10.592Z,-1.20
2019-01-24T14:06:12.277Z,-1.20
2019-01-24T14:08:14.233Z,-1.10
2019-01-24T14:10:16.001Z,-1.10
2019-01-24T14:12:17.666Z,-1.10
2019-01-24T14:14:19.345Z,-1.10
2019-01-24T14:16:20.984Z,-1.10
2019-01-24T14:18:22.681Z,-1.10
2019-01-24T14:20:24.373Z,-1.20
2019-01-24T14:22:26.039Z,-1.30
2019-01-24T14:24:27.694Z,-1.30
2019-01-24T14:26:29.374Z,-1.40
2019-01-24T14:28:31.029Z,-1.40
2019-01-24T14:30:32.672Z,-1.50
2019-01-24T14:32:34.343Z,-1.50
2019-01-24T14:34:36.241Z,-1.50
2019-01-24T14:36:38.205Z,-1.50
2019-01-24T14:38:40.177Z,-1.50
2019-01-24T14:40:41.828Z,-1.60
2019-01-24T14:42:43.650Z,-1.60
2019-01-24T14:44:45.641Z,-1.60
2019-01-24T14:46:47.285Z,-1.60
2019-01-24T14:48:48.952Z,-1.60
2019-01-24T14:50:50.788Z,-1.60
2019-01-24T14:52:52.925Z,-1.70
2019-01-24T14:54:57.572Z,-1.60
2019-01-24T14:56:59.668Z,-1.70
2019-01-24T14:59:01.407Z,-1.70
2019-01-24T15:01:24.548Z,-1.70
2019-01-24T15:03:26.957Z,-1.70
2019-01-24T15:05:29.981Z,-1.80
2019-01-24T15:07:34.135Z,-1.80
2019-01-24T15:09:35.945Z,-1.80
2019-01-24T15:11:37.732Z,-1.80
2019-01-24T15:13:39.685Z,-1.90
2019-01-24T15:15:42.104Z,-1.90
2019-01-24T15:17:46.620Z,-1.90
2019-01-24T15:19:48.390Z,-1.90
2019-01-24T15:21:52.237Z,-1.90
2019-01-24T15:23:53.891Z,-1.90
2019-01-24T15:25:55.533Z,-1.90
2019-01-24T15:27:57.196Z,-1.90
2019-01-24T15:29:58.901Z,-1.90
2019-01-24T15:32:03.376Z,-1.90
2019-01-24T15:34:05.246Z,-1.90
2019-01-24T15:36:07.095Z,-1.90
2019-01-24T15:38:08.824Z,-1.90
2019-01-24T15:40:16.649Z,-1.90
2019-01-24T15:42:18.449Z,-1.90
2019-01-24T15:44:20.269Z,-2.00
2019-01-24T15:46:22.205Z,-2.00
2019-01-24T15:48:24.041Z,-2.00
2019-01-24T15:50:25.873Z,-1.90
2019-01-24T15:52:33.900Z,-2.00
2019-01-24T15:54:31.161Z,-2.00
2019-01-24T15:56:34.691Z,-2.00
2019-01-24T15:58:36.360Z,-2.00
2019-01-24T16:00:38.260Z,-2.00
2019-01-24T16:02:39.918Z,-2.00
2019-01-24T16:04:41.577Z,-2.00
2019-01-24T16:06:43.414Z,-2.00
2019-01-24T16:08:45.781Z,-2.00
2019-01-24T16:10:47.946Z,-2.00
2019-01-24T16:12:49.896Z,-2.00
2019-01-24T16:14:51.547Z,-2.00
2019-01-24T16:16:53.629Z,-2.00
2019-01-24T16:18:55.292Z,-2.00
2019-01-24T16:20:57.107Z,-2.00
2019-01-24T16:22:59.183Z,-2.00
2019-01-24T16:25:00.841Z,-2.00
2019-01-24T16:27:02.677Z,-2.00
2019-01-24T16:29:04.445Z,-2.00
2019-01-24T16:31:06.508Z,-2.00
2019-01-24T16:33:08.358Z,-2.10
2019-01-24T16:35:10.678Z,-2.10
2019-01-24T16:37:12.394Z,-2.10
2019-01-24T16:39:14.052Z,-2.00
2019-01-24T16:41:15.700Z,-2.00
2019-01-24T16:43:17.349Z,-2.10
2019-01-24T16:45:20.751Z,-2.10
2019-01-24T16:47:22.405Z,-2.10
2019-01-24T16:49:24.055Z,-2.10
2019-01-24T16:51:25.706Z,-2.10
2019-01-24T16:53:27.362Z,-2.10
2019-01-24T16:55:29.272Z,-2.10
2019-01-24T16:57:31.247Z,-2.10
2019-01-24T16:59:32.971Z,-2.10
2019-01-24T17:01:34.965Z,-2.10
2019-01-24T17:03:36.627Z,-2.10
2019-01-24T17:05:38.329Z,-2.10
2019-01-24T17:07:40.046Z,-2.10
2019-01-24T17:09:41.740Z,-2.10
2019-01-24T17:11:43.393Z,-2.10
2019-01-24T17:13:45.045Z,-2.10
2019-01-24T17:15:47.053Z,-2.00
2019-01-24T17:17:48.696Z,-2.00
2019-01-24T17:19:50.677Z,-2.00
2019-01-24T17:21:52.571Z,-2.00
2019-01-24T17:23:54.395Z,-2.00
2019-01-24T17:28:07.673Z,-2.00
2019-01-24T17:30:12.344Z,-2.10
2019-01-24T17:32:14.185Z,-2.00
2019-01-24T17:34:16.236Z,-2.00
2019-01-24T17:36:20.407Z,-2.00
2019-01-24T17:38:24.126Z,-2.00
2019-01-24T17:40:27.867Z,-2.00
2019-01-24T17:42:29.522Z,-2.00
2019-01-24T17:44:33.115Z,-2.10
2019-01-24T17:46:34.781Z,-2.10
2019-01-24T17:48:36.421Z,-2.10
2019-01-24T17:50:38.103Z,-2.10
2019-01-24T17:52:39.759Z,-2.10
2019-01-24T17:54:41.408Z,-2.10
2019-01-24T17:56:43.060Z,-2.10
2019-01-24T17:58:44.725Z,-2.10
2019-01-24T18:00:49.069Z,-2.10
2019-01-24T18:02:50.739Z,-2.10
2019-01-24T18:04:53.619Z,-2.10
2019-01-24T18:06:55.349Z,-2.10
2019-01-24T18:08:57.079Z,-2.00
2019-01-24T18:10:59.073Z,-2.00
2019-01-24T18:13:03.084Z,-2.10
2019-01-24T18:15:07.622Z,-2.00
2019-01-24T18:17:09.285Z,-2.00
2019-01-24T18:19:10.935Z,-2.10
2019-01-24T18:21:12.848Z,-2.00
2019-01-24T18:23:14.589Z,-2.10
2019-01-24T18:25:16.295Z,-2.00
2019-01-24T18:27:18.230Z,-2.00
2019-01-24T18:29:19.897Z,-2.00
2019-01-24T18:31:21.722Z,-2.10
2019-01-24T18:33:23.553Z,-2.10
2019-01-24T18:35:25.477Z,-2.10
2019-01-24T18:37:27.473Z,-2.10
2019-01-24T18:39:29.336Z,-2.10
2019-01-24T18:41:31.168Z,-2.10
2019-01-24T18:43:34.046Z,-2.10
2019-01-24T18:45:42.965Z,-2.10
2019-01-24T18:47:44.917Z,-2.10
2019-01-24T18:49:46.724Z,-2.10
2019-01-24T18:51:48.556Z,-2.10
2019-01-24T18:53:50.579Z,-2.10
2019-01-24T18:55:52.209Z,-2.10
2019-01-24T18:57:54.974Z,-2.10
2019-01-24T18:59:56.737Z,-2.10
2019-01-24T19:02:00.721Z,-2.10
2019-01-24T19:04:02.348Z,-2.10
2019-01-24T19:06:06.585Z,-2.10
2019-01-24T19:08:08.356Z,-2.10
2019-01-24T19:10:10.122Z,-2.10
2019-01-24T19:12:11.992Z,-2.00
2019-01-24T19:14:13.642Z,-2.10
2019-01-24T19:16:15.780Z,-2.10
2019-01-24T19:18:17.670Z,-2.10
2019-01-24T19:20:21.752Z,-2.10
2019-01-24T19:22:23.576Z,-2.10
2019-01-24T19:24:25.590Z,-2.10
2019-01-24T19:26:27.452Z,-2.00
2019-01-24T19:28:29.469Z,-2.00
2019-01-24T19:30:31.561Z,-2.00
2019-01-24T19:32:33.529Z,-2.00
2019-01-24T19:34:35.176Z,-2.00
2019-01-24T19:36:36.855Z,-2.00
2019-01-24T19:38:38.644Z,-2.00
2019-01-24T19:40:40.299Z,-2.00
2019-01-24T19:42:43.650Z,-2.00
2019-01-24T19:44:45.498Z,-2.00
2019-01-24T19:46:47.452Z,-2.00
2019-01-24T19:48:49.445Z,-2.00
2019-01-24T19:50:51.147Z,-2.00
2019-01-24T19:52:52.832Z,-2.00
2019-01-24T19:54:54.619Z,-2.00
2019-01-24T19:56:56.278Z,-2.00
2019-01-24T19:58:58.246Z,-2.00
2019-01-24T20:01:00.161Z,-2.00
2019-01-24T20:03:02.468Z,-2.00
2019-01-24T20:05:04.953Z,-2.00
2019-01-24T20:07:06.608Z,-2.00
2019-01-24T20:09:08.496Z,-2.00
2019-01-24T20:11:10.176Z,-2.00
2019-01-24T20:13:11.846Z,-2.00
2019-01-24T20:15:20.410Z,-2.00
2019-01-24T20:17:22.062Z,-2.00
2019-01-24T20:19:23.741Z,-2.00
2019-01-24T20:21:25.397Z,-2.00
2019-01-24T20:23:27.057Z,-2.00
2019-01-24T20:25:29.690Z,-2.00
2019-01-24T20:27:31.336Z,-2.00
2019-01-24T20:29:33.008Z,-2.00
2019-01-24T20:31:34.678Z,-2.00
2019-01-24T20:33:36.325Z,-2.00
2019-01-24T20:35:43.764Z,-2.00
2019-01-24T20:37:45.445Z,-2.00
2019-01-24T20:39:48.414Z,-2.00
2019-01-24T20:41:50.100Z,-2.00
2019-01-24T20:43:51.752Z,-2.00
2019-01-24T20:45:53.413Z,-2.00
2019-01-24T20:47:55.078Z,-2.00
2019-01-24T20:49:56.769Z,-2.00
2019-01-24T20:51:58.461Z,-2.00
2019-01-24T20:54:00.399Z,-2.00
2019-01-24T20:56:02.128Z,-2.00
2019-01-24T20:58:04.175Z,-2.00
2019-01-24T21:00:10.141Z,-2.00
2019-01-24T21:02:12.073Z,-2.00
2019-01-24T21:04:15.077Z,-2.00
2019-01-24T21:06:16.836Z,-2.00
2019-01-24T21:08:18.769Z,-2.00
2019-01-24T21:10:22.309Z,-2.00
2019-01-24T21:12:23.998Z,-2.00
2019-01-24T21:14:25.660Z,-2.10
2019-01-24T21:16:27.311Z,-2.10
2019-01-24T21:18:28.973Z,-2.10
2019-01-24T21:20:30.656Z,-2.10
2019-01-24T21:22:32.316Z,-2.10
2019-01-24T21:24:34.033Z,-2.10
2019-01-24T21:26:35.691Z,-2.10
2019-01-24T21:28:37.332Z,-2.10
2019-01-24T21:30:38.992Z,-2.10
2019-01-24T21:32:40.648Z,-2.20
2019-01-24T21:34:42.482Z,-2.20
2019-01-24T21:36:44.453Z,-2.20
2019-01-24T21:38:46.105Z,-2.20
2019-01-24T21:40:47.785Z,-2.20
2019-01-24T21:42:52.609Z,-2.20
2019-01-24T21:44:54.354Z,-2.20
2019-01-24T21:46:56.006Z,-2.20
2019-01-24T21:48:58.004Z,-2.20
2019-01-24T21:50:59.659Z,-2.20
2019-01-24T21:53:01.332Z,-2.20
2019-01-24T21:55:03.853Z,-2.20
2019-01-24T21:57:05.505Z,-2.20
2019-01-24T21:59:07.169Z,-2.20
2019-01-24T22:01:08.821Z,-2.20
2019-01-24T22:03:10.497Z,-2.20
2019-01-24T22:05:12.505Z,-2.20
2019-01-24T22:07:14.180Z,-2.20
2019-01-24T22:09:15.844Z,-2.20
2019-01-24T22:11:17.647Z,-2.20
2019-01-24T22:13:19.605Z,-2.20
2019-01-24T22:15:23.145Z,-2.20
2019-01-24T22:17:24.806Z,-2.20
2019-01-24T22:19:26.817Z,-2.30
2019-01-24T22:21:28.476Z,-2.30
2019-01-24T22:23:30.125Z,-2.30
2019-01-24T22:25:33.017Z,-2.30
2019-01-24T22:27:34.665Z,-2.30
2019-01-24T22:29:36.324Z,-2.30
2019-01-24T22:31:39.129Z,-2.30
2019-01-24T22:33:40.937Z,-2.30
2019-01-24T22:35:42.595Z,-2.30
2019-01-24T22:37:44.246Z,-2.30
2019-01-24T22:39:45.888Z,-2.30
2019-01-24T22:41:47.540Z,-2.30
2019-01-24T22:43:49.201Z,-2.30
2019-01-24T22:45:51.568Z,-2.30
2019-01-24T22:47:53.223Z,-2.30
2019-01-24T22:49:54.877Z,-2.30
2019-01-24T22:51:56.529Z,-2.30
2019-01-24T22:53:58.189Z,-2.30
2019-01-24T22:55:59.846Z,-2.30
2019-01-24T22:58:01.609Z,-2.30
2019-01-24T23:00:09.896Z,-2.30
2019-01-24T23:02:21.562Z,-2.30
2019-01-24T23:04:23.949Z,-2.30
2019-01-24T23:06:25.621Z,-2.30
2019-01-24T23:08:27.273Z,-2.30
2019-01-24T23:10:29.192Z,-2.30
2019-01-24T23:12:30.948Z,-2.30
2019-01-24T23:14:32.879Z,-2.30
2019-01-24T23:16:34.540Z,-2.30
2019-01-24T23:18:36.229Z,-2.30
2019-01-24T23:20:37.888Z,-2.30
2019-01-24T23:22:39.532Z,-2.30
2019-01-24T23:24:41.197Z,-2.30
2019-01-24T23:26:42.856Z,-2.30
2019-01-24T23:28:44.777Z,-2.30
2019-01-24T23:30:46.446Z,-2.30
2019-01-24T23:32:48.385Z,-2.40
2019-01-24T23:34:50.034Z,-2.40
2019-01-24T23:36:51.988Z,-2.40
2019-01-24T23:38:53.645Z,-2.40
2019-01-24T23:40:55.606Z,-2.40
2019-01-24T23:42:57.297Z,-2.40
2019-01-24T23:44:58.949Z,-2.50
2019-01-24T23:47:00.611Z,-2.50
2019-01-24T23:49:02.265Z,-2.40
2019-01-24T23:51:03.925Z,-2.40
2019-01-24T23:53:05.572Z,-2.50
2019-01-24T23:55:07.225Z,-2.50
2019-01-24T23:57:08.889Z,-2.50
2019-01-24T23:59:10.538Z,-2.50
